Time;durP1;ratioP1;P1;durP2;ratioP2;P2;SDS_P1;SDS_P2;PMS_P1;PMS_P2;Temp;Humidity;BMP_temperature;BMP_pressure;BME280_temperature;BME280_humidity;BME280_pressure;Samples;Min_cycle;Max_cycle;Signal;HPM_P1;HPM_P2
2021/12/17 00:01:08;;;;;;;11.52;5.50;;;11.40;85.90;;;;;;5062184;28;20539;-82
2021/12/17 00:03:48;;;;;;;12.07;6.30;;;11.40;86.00;;;;;;5064404;28;20032;-82
2021/12/17 00:06:41;;;;;;;11.50;5.45;;;11.50;86.00;;;;;;5064000;28;20024;-81
2021/12/17 00:09:04;;;;;;;12.35;6.22;;;11.40;85.80;;;;;;5062585;28;20441;-82
2021/12/17 00:11:30;;;;;;;10.35;5.03;;;11.50;85.90;;;;;;5059521;28;20029;-80
2021/12/17 00:13:56;;;;;;;11.15;5.80;;;11.50;86.00;;;;;;5064462;28;20024;-82
2021/12/17 00:16:26;;;;;;;9.30;5.00;;;11.50;86.60;;;;;;5059583;28;20025;-81
2021/12/17 00:48:45;;;;;;;9.32;4.47;;;11.50;85.60;;;;;;5073789;28;20106;-80
2021/12/17 00:53:57;;;;;;;9.65;4.43;;;11.40;85.90;;;;;;5072310;28;20037;-79
2021/12/17 00:56:24;;;;;;;12.57;5.13;;;11.40;86.10;;;;;;5072943;28;20027;-80
2021/12/17 00:58:50;;;;;;;11.02;4.95;;;11.40;86.70;;;;;;5072794;28;20028;-79
2021/12/17 01:01:16;;;;;;;11.80;5.47;;;11.40;86.20;;;;;;5072715;28;20385;-79
2021/12/17 01:03:42;;;;;;;9.23;5.13;;;11.40;86.00;;;;;;5073519;28;20043;-79
2021/12/17 01:06:08;;;;;;;10.35;5.25;;;11.40;86.00;;;;;;5070857;28;20032;-79
2021/12/17 01:08:34;;;;;;;12.00;4.80;;;11.40;86.10;;;;;;5070695;28;20021;-79
2021/12/17 01:11:00;;;;;;;16.20;5.88;;;11.40;86.10;;;;;;5073188;28;20028;-79
2021/12/17 01:13:27;;;;;;;10.70;5.18;;;11.40;86.00;;;;;;5072537;28;20402;-78
2021/12/17 01:15:53;;;;;;;9.60;4.93;;;11.30;86.00;;;;;;5071089;28;20032;-77
2021/12/17 01:18:22;;;;;;;8.80;4.22;;;11.30;85.90;;;;;;5072720;28;20025;-77
2021/12/17 01:36:21;;;;;;;11.05;5.03;;;11.40;85.90;;;;;;5071295;28;20055;-78
2021/12/17 01:41:57;;;;;;;8.43;4.30;;;11.40;86.00;;;;;;5072612;28;20037;-78
2021/12/17 01:44:23;;;;;;;9.10;4.60;;;11.40;85.90;;;;;;5070511;28;20016;-78
2021/12/17 01:46:52;;;;;;;8.85;4.20;;;11.50;86.00;;;;;;5071859;28;20090;-78
2021/12/17 01:55:40;;;;;;;10.27;4.63;;;11.40;85.70;;;;;;5072199;28;20428;-77
2021/12/17 02:00:41;;;;;;;12.45;4.90;;;11.40;85.70;;;;;;5071954;28;20044;-78
2021/12/17 02:03:08;;;;;;;7.90;4.20;;;11.40;85.50;;;;;;5071024;28;20111;-78
2021/12/17 02:05:35;;;;;;;8.38;3.50;;;11.40;85.50;;;;;;5069374;28;20396;-78
2021/12/17 02:08:01;;;;;;;6.78;3.80;;;11.40;85.50;;;;;;5072084;28;20379;-78
2021/12/17 02:19:31;;;;;;;7.47;3.97;;;11.30;85.60;;;;;;5071532;28;20090;-79
2021/12/17 02:33:01;;;;;;;8.07;4.28;;;11.40;85.50;;;;;;5069090;28;20112;-79
2021/12/17 02:35:39;;;;;;;10.52;4.57;;;11.50;85.50;;;;;;5070486;28;20115;-80
2021/12/17 02:38:07;;;;;;;8.38;4.28;;;11.40;85.30;;;;;;5071746;28;20429;-80
2021/12/17 02:45:46;;;;;;;9.15;4.68;;;11.40;85.40;;;;;;5071387;28;20119;-79
2021/12/17 02:48:15;;;;;;;8.93;4.30;;;11.50;85.40;;;;;;5071300;28;20020;-80
2021/12/17 02:50:44;;;;;;;7.75;3.78;;;11.50;85.30;;;;;;5070773;28;20089;-80
2021/12/17 02:53:11;;;;;;;8.43;4.38;;;11.50;85.30;;;;;;5071170;28;20017;-80
2021/12/17 02:55:40;;;;;;;7.40;4.00;;;11.50;85.20;;;;;;5068631;28;20073;-80
2021/12/17 02:58:07;;;;;;;8.63;4.28;;;11.60;85.30;;;;;;5070970;28;20033;-80
2021/12/17 03:00:34;;;;;;;8.85;4.40;;;11.50;85.30;;;;;;5070337;28;20033;-80
2021/12/17 03:03:03;;;;;;;9.60;4.53;;;11.50;85.30;;;;;;5070612;28;20052;-80
2021/12/17 03:05:29;;;;;;;8.68;4.45;;;11.50;85.30;;;;;;5070265;28;20025;-80
2021/12/17 03:07:56;;;;;;;8.20;4.78;;;11.50;85.40;;;;;;5062724;28;20017;-79
2021/12/17 03:10:22;;;;;;;11.13;5.15;;;11.50;85.50;;;;;;5068881;28;20431;-80
2021/12/17 03:12:51;;;;;;;10.70;4.82;;;11.50;85.40;;;;;;5071150;28;20170;-79
2021/12/17 03:23:40;;;;;;;9.43;5.03;;;11.50;85.40;;;;;;5070603;28;20466;-80
2021/12/17 03:26:26;;;;;;;10.23;4.82;;;11.50;85.30;;;;;;5069930;28;20032;-80
2021/12/17 03:28:55;;;;;;;10.85;5.13;;;11.60;85.40;;;;;;5069298;28;20017;-80
2021/12/17 03:31:21;;;;;;;9.20;5.07;;;11.50;85.30;;;;;;5069678;28;20052;-80
2021/12/17 03:33:49;;;;;;;9.68;4.53;;;11.60;85.30;;;;;;5069105;28;20029;-79
2021/12/17 03:36:17;;;;;;;10.02;5.30;;;11.60;85.40;;;;;;5069526;28;20037;-79
2021/12/17 03:38:46;;;;;;;8.65;4.50;;;11.60;85.40;;;;;;5068252;28;20020;-78
2021/12/17 03:41:22;;;;;;;10.20;5.07;;;11.60;85.30;;;;;;5070211;28;20036;-79
2021/12/17 03:43:50;;;;;;;9.45;4.93;;;11.70;85.30;;;;;;5068201;28;20140;-80
2021/12/17 03:46:16;;;;;;;9.75;5.13;;;11.70;85.20;;;;;;5069527;28;20039;-78
2021/12/17 03:48:42;;;;;;;10.43;5.30;;;11.70;85.20;;;;;;5069571;28;20035;-79
2021/12/17 03:51:13;;;;;;;9.93;5.20;;;11.70;85.10;;;;;;5068412;28;20029;-79
2021/12/17 03:53:45;;;;;;;9.70;5.13;;;11.70;85.10;;;;;;5069833;28;20063;-81
2021/12/17 03:56:11;;;;;;;8.95;4.75;;;11.70;85.20;;;;;;5069264;28;20029;-79
2021/12/17 03:58:37;;;;;;;10.32;5.13;;;11.70;85.20;;;;;;5069914;28;20033;-78
2021/12/17 04:01:03;;;;;;;11.43;5.07;;;11.70;85.30;;;;;;5069657;28;20376;-78
2021/12/17 04:03:29;;;;;;;9.85;5.30;;;11.70;85.20;;;;;;5069719;28;20036;-78
2021/12/17 04:05:54;;;;;;;11.52;5.45;;;11.80;85.20;;;;;;5067710;28;20027;-78
2021/12/17 04:08:20;;;;;;;11.40;5.57;;;11.70;85.20;;;;;;5069360;28;20479;-78
2021/12/17 04:10:49;;;;;;;11.70;6.22;;;11.70;85.30;;;;;;5069435;28;20032;-79
2021/12/17 04:15:57;;;;;;;14.65;7.45;;;11.60;85.10;;;;;;5069741;28;20123;-79
2021/12/17 04:18:24;;;;;;;14.23;7.07;;;11.60;85.10;;;;;;5069799;28;20043;-79
2021/12/17 04:20:50;;;;;;;10.93;5.30;;;11.50;85.30;;;;;;5069331;28;20025;-79
2021/12/17 04:23:15;;;;;;;13.30;6.40;;;11.50;85.50;;;;;;5069703;28;20037;-79
2021/12/17 04:25:41;;;;;;;12.93;6.15;;;11.50;85.50;;;;;;5067729;28;20024;-79
2021/12/17 04:28:07;;;;;;;13.07;6.30;;;11.60;85.50;;;;;;5069952;28;20028;-80
2021/12/17 04:30:32;;;;;;;11.45;5.60;;;11.60;85.50;;;;;;5069437;28;20637;-79
2021/12/17 04:32:58;;;;;;;12.38;5.85;;;11.60;85.50;;;;;;5069338;28;20380;-80
2021/12/17 04:35:24;;;;;;;12.50;6.28;;;11.60;85.50;;;;;;5068996;28;20040;-80
2021/12/17 04:37:50;;;;;;;12.55;6.70;;;11.60;85.40;;;;;;5069624;28;20463;-79
2021/12/17 04:40:18;;;;;;;10.45;5.55;;;11.60;85.20;;;;;;5069637;28;20501;-79
2021/12/17 04:45:25;;;;;;;12.45;6.13;;;11.70;85.30;;;;;;5069495;28;20060;-79
2021/12/17 04:58:46;;;;;;;13.45;6.90;;;11.50;85.00;;;;;;5069496;28;20161;-79
2021/12/17 05:01:14;;;;;;;11.75;6.40;;;11.50;85.20;;;;;;5068957;28;20620;-79
2021/12/17 05:03:40;;;;;;;12.38;6.53;;;11.50;85.30;;;;;;5067647;28;20025;-80
2021/12/17 05:06:06;;;;;;;12.70;6.15;;;11.50;85.40;;;;;;5067782;28;20029;-79
2021/12/17 05:08:32;;;;;;;11.90;5.60;;;11.50;85.30;;;;;;5067433;28;20017;-81
2021/12/17 05:22:09;;;;;;;13.07;6.43;;;11.30;85.50;;;;;;5063633;28;20037;-78
2021/12/17 05:24:35;;;;;;;12.00;6.32;;;11.30;85.50;;;;;;5070569;28;20036;-79
2021/12/17 05:27:00;;;;;;;13.02;6.57;;;11.30;85.60;;;;;;5072191;28;20574;-79
2021/12/17 05:29:26;;;;;;;12.45;6.22;;;11.30;85.60;;;;;;5071549;28;20035;-79
2021/12/17 05:31:51;;;;;;;14.00;6.78;;;11.30;85.50;;;;;;5071899;28;20033;-80
2021/12/17 05:34:17;;;;;;;11.80;6.05;;;11.30;85.50;;;;;;5071267;28;20119;-79
2021/12/17 05:36:42;;;;;;;13.20;6.60;;;11.40;85.50;;;;;;5071895;28;20107;-79
2021/12/17 05:39:08;;;;;;;14.88;7.25;;;11.40;85.50;;;;;;5072632;28;20024;-80
2021/12/17 05:41:33;;;;;;;13.70;7.05;;;11.40;85.40;;;;;;5072506;28;20036;-80
2021/12/17 05:43:59;;;;;;;13.90;6.80;;;11.50;85.30;;;;;;5072105;28;20033;-80
2021/12/17 05:46:48;;;;;;;13.98;7.30;;;11.40;85.10;;;;;;5069978;28;20024;-81
2021/12/17 05:49:10;;;;;;;14.05;7.35;;;11.40;85.20;;;;;;5072031;28;20123;-80
2021/12/17 05:51:36;;;;;;;12.30;6.50;;;11.40;85.40;;;;;;5071885;28;20119;-81
2021/12/17 05:54:02;;;;;;;15.52;6.85;;;11.40;85.50;;;;;;5070641;28;20056;-80
2021/12/17 05:56:28;;;;;;;13.02;6.93;;;11.40;86.10;;;;;;5071272;28;20090;-80
2021/12/17 05:58:55;;;;;;;14.05;6.60;;;11.40;85.50;;;;;;5069688;28;20017;-80
2021/12/17 06:01:21;;;;;;;11.00;5.63;;;11.40;85.50;;;;;;5069539;28;20035;-80
2021/12/17 06:03:46;;;;;;;12.75;6.28;;;11.40;85.50;;;;;;5071015;28;20483;-81
2021/12/17 06:06:12;;;;;;;11.48;5.63;;;11.40;85.40;;;;;;5070744;28;20024;-81
2021/12/17 06:08:37;;;;;;;12.20;6.43;;;11.40;85.30;;;;;;5070947;28;20028;-81
2021/12/17 06:11:03;;;;;;;12.02;5.97;;;11.50;85.40;;;;;;5070901;28;20064;-81
2021/12/17 06:13:28;;;;;;;12.48;6.43;;;11.40;85.20;;;;;;5071014;28;20055;-82
2021/12/17 06:15:54;;;;;;;12.63;6.03;;;11.50;85.30;;;;;;5070639;28;20124;-81
2021/12/17 06:18:19;;;;;;;11.55;6.28;;;11.40;85.30;;;;;;5070928;28;20036;-80
2021/12/17 06:20:45;;;;;;;10.80;5.40;;;11.50;85.30;;;;;;5070516;28;20029;-80
2021/12/17 06:23:10;;;;;;;10.02;5.10;;;11.40;85.30;;;;;;5070274;28;20016;-80
2021/12/17 06:25:36;;;;;;;11.52;6.30;;;11.50;85.40;;;;;;5069993;28;20039;-80
2021/12/17 06:28:01;;;;;;;13.30;6.43;;;11.50;85.30;;;;;;5071041;28;20056;-77
2021/12/17 06:30:27;;;;;;;14.05;6.82;;;11.50;85.30;;;;;;5070977;28;20380;-79
2021/12/17 06:32:53;;;;;;;11.40;6.15;;;11.50;85.30;;;;;;5070815;28;20476;-78
2021/12/17 06:35:18;;;;;;;12.45;6.07;;;11.50;85.30;;;;;;5070240;28;20028;-78
2021/12/17 06:37:44;;;;;;;11.02;5.65;;;11.60;85.30;;;;;;5070786;28;20077;-79
2021/12/17 06:40:11;;;;;;;11.68;5.90;;;11.60;85.30;;;;;;5066854;28;20115;-79
2021/12/17 06:42:37;;;;;;;11.98;6.10;;;11.60;85.10;;;;;;5070803;28;20516;-82
2021/12/17 06:45:08;;;;;;;9.43;5.03;;;11.60;85.10;;;;;;5068494;28;20028;-81
2021/12/17 06:47:36;;;;;;;9.68;5.57;;;11.60;85.10;;;;;;5058765;28;20039;-82
2021/12/17 06:56:02;;;;;;;8.98;4.68;;;11.60;85.10;;;;;;5066766;28;20530;-81
2021/12/17 07:05:48;;;;;;;8.95;4.88;;;11.60;85.10;;;;;;5063781;28;20058;-80
2021/12/17 07:23:25;;;;;;;9.23;4.93;;;11.30;85.30;;;;;;5067911;28;20098;-78
2021/12/17 07:31:21;;;;;;;7.72;4.03;;;11.20;85.30;;;;;;5064104;28;20027;-78
2021/12/17 07:34:41;;;;;;;5.97;3.58;;;11.00;85.60;;;;;;5067825;28;20035;-78
2021/12/17 07:39:34;;;;;;;6.88;3.80;;;10.80;85.80;;;;;;5067352;28;20102;-78
2021/12/17 07:41:59;;;;;;;7.70;4.63;;;10.70;86.00;;;;;;5062372;28;20067;-78
2021/12/17 07:44:25;;;;;;;8.23;4.10;;;10.60;86.10;;;;;;5065679;28;20024;-78
2021/12/17 07:46:51;;;;;;;6.03;3.60;;;10.60;86.30;;;;;;5064760;28;20073;-78
2021/12/17 07:49:16;;;;;;;6.70;3.47;;;10.70;86.40;;;;;;5058932;28;20036;-79
2021/12/17 07:51:42;;;;;;;5.70;3.30;;;10.70;86.40;;;;;;5063773;28;20039;-77
2021/12/17 07:54:07;;;;;;;5.90;3.50;;;10.70;86.30;;;;;;5067053;28;20028;-80
2021/12/17 07:56:37;;;;;;;7.80;4.00;;;10.70;86.20;;;;;;5064978;28;20036;-77
2021/12/17 07:59:04;;;;;;;6.47;3.53;;;10.70;86.10;;;;;;5059024;28;20475;-77
2021/12/17 08:01:29;;;;;;;6.38;3.40;;;10.70;86.20;;;;;;5066916;28;20016;-80
2021/12/17 08:03:55;;;;;;;5.47;3.25;;;10.70;86.20;;;;;;5064417;28;20371;-81
2021/12/17 08:06:21;;;;;;;6.38;3.40;;;10.70;86.10;;;;;;5067811;28;20402;-83
2021/12/17 08:08:46;;;;;;;6.20;3.40;;;10.70;86.20;;;;;;5067031;28;20028;-79
2021/12/17 08:11:12;;;;;;;5.97;3.38;;;10.60;86.20;;;;;;5065179;28;20032;-78
2021/12/17 08:13:37;;;;;;;6.95;3.60;;;10.60;86.20;;;;;;5064102;28;20051;-78
2021/12/17 08:31:27;;;;;;;7.32;3.80;;;10.40;87.10;;;;;;5056367;28;20472;-77
2021/12/17 08:33:53;;;;;;;5.68;3.30;;;10.40;86.40;;;;;;5059333;28;20032;-77
2021/12/17 08:36:19;;;;;;;5.32;2.92;;;10.40;86.50;;;;;;5064438;28;20028;-78
2021/12/17 08:38:46;;;;;;;6.50;3.40;;;10.40;86.40;;;;;;5061187;28;20039;-80
2021/12/17 08:41:13;;;;;;;5.20;2.88;;;10.40;86.30;;;;;;5063782;28;20095;-81
2021/12/17 08:43:40;;;;;;;5.05;2.78;;;10.50;86.40;;;;;;5059204;28;20021;-77
2021/12/17 08:46:06;;;;;;;8.88;4.47;;;10.50;86.40;;;;;;5062370;28;20036;-78
2021/12/17 08:48:31;;;;;;;7.40;4.30;;;10.40;86.20;;;;;;5061299;28;20020;-78
2021/12/17 08:50:57;;;;;;;6.70;3.72;;;10.30;86.30;;;;;;5059423;28;20029;-78
2021/12/17 08:53:23;;;;;;;6.28;3.50;;;10.40;86.50;;;;;;5060761;28;20021;-78
2021/12/17 08:55:49;;;;;;;6.72;3.92;;;10.40;86.50;;;;;;5057904;28;20052;-78
2021/12/17 08:58:14;;;;;;;5.72;3.33;;;10.30;86.40;;;;;;5063946;28;21782;-78
2021/12/17 09:00:41;;;;;;;5.65;3.28;;;10.30;86.60;;;;;;5069822;28;20028;-78
2021/12/17 09:03:09;;;;;;;6.03;3.30;;;10.30;86.60;;;;;;5065875;28;20066;-79
2021/12/17 09:05:37;;;;;;;5.72;3.03;;;10.20;86.70;;;;;;5066120;28;20020;-78
2021/12/17 09:08:04;;;;;;;5.72;3.22;;;10.20;86.70;;;;;;5069309;28;20021;-78
2021/12/17 09:10:29;;;;;;;4.55;2.80;;;10.20;86.70;;;;;;5061182;28;20167;-79
2021/12/17 09:12:55;;;;;;;6.00;3.00;;;10.20;86.70;;;;;;5063865;28;20134;-77
2021/12/17 09:15:20;;;;;;;4.57;2.88;;;10.20;86.70;;;;;;5060150;28;20590;-77
2021/12/17 09:17:46;;;;;;;4.82;3.13;;;10.20;86.60;;;;;;5063053;28;20406;-77
2021/12/17 09:20:12;;;;;;;4.03;2.40;;;10.30;86.60;;;;;;5063363;28;20651;-79
2021/12/17 09:22:37;;;;;;;5.35;3.30;;;10.30;86.60;;;;;;5061577;28;20024;-80
2021/12/17 09:25:04;;;;;;;5.55;3.20;;;10.30;86.50;;;;;;5064206;28;20103;-79
2021/12/17 09:27:30;;;;;;;6.13;3.10;;;10.20;86.40;;;;;;5062856;28;20036;-79
2021/12/17 09:29:55;;;;;;;5.35;2.83;;;10.20;86.40;;;;;;5067713;28;20044;-76
2021/12/17 09:32:21;;;;;;;4.75;3.10;;;10.10;86.40;;;;;;5066280;28;20024;-79
2021/12/17 09:34:47;;;;;;;4.93;3.25;;;10.20;86.60;;;;;;5057886;28;20040;-80
2021/12/17 09:37:13;;;;;;;5.10;3.30;;;10.10;86.60;;;;;;5070263;28;20105;-79
2021/12/17 09:39:39;;;;;;;4.18;2.63;;;10.10;86.50;;;;;;5061615;28;20012;-76
2021/12/17 09:42:04;;;;;;;5.15;3.10;;;10.10;86.50;;;;;;5063377;28;20031;-76
2021/12/17 09:44:30;;;;;;;3.20;2.17;;;10.10;86.50;;;;;;5063834;28;20035;-77
2021/12/17 09:46:57;;;;;;;4.50;3.10;;;10.10;86.60;;;;;;5062455;28;20020;-78
2021/12/17 09:49:25;;;;;;;3.42;2.40;;;10.10;86.50;;;;;;5065151;28;20029;-78
2021/12/17 09:51:51;;;;;;;4.10;2.47;;;10.10;86.60;;;;;;5061243;28;20024;-77
2021/12/17 09:54:17;;;;;;;4.38;2.55;;;10.20;86.70;;;;;;5059417;28;20032;-78
2021/12/17 09:56:43;;;;;;;3.60;2.53;;;10.20;86.60;;;;;;5065759;28;20017;-79
2021/12/17 09:59:10;;;;;;;3.58;2.58;;;10.20;86.60;;;;;;5064387;28;20082;-79
2021/12/17 10:01:42;;;;;;;3.90;2.67;;;10.20;86.50;;;;;;5062532;28;20033;-78
2021/12/17 10:04:19;;;;;;;5.07;2.90;;;10.20;86.40;;;;;;5063740;28;20495;-77
2021/12/17 10:06:48;;;;;;;4.35;2.83;;;10.20;86.40;;;;;;5064244;28;20021;-77
2021/12/17 10:09:15;;;;;;;3.90;2.65;;;10.20;86.40;;;;;;5061562;28;20082;-77
2021/12/17 10:12:01;;;;;;;3.72;2.53;;;10.20;86.40;;;;;;5061393;28;20056;-77
2021/12/17 10:14:27;;;;;;;4.60;2.80;;;10.30;87.10;;;;;;5065547;28;20044;-77
2021/12/17 10:17:06;;;;;;;4.60;2.83;;;10.30;86.30;;;;;;5058580;28;20426;-77
2021/12/17 10:19:47;;;;;;;4.15;2.42;;;10.30;86.30;;;;;;5062529;28;20029;-78
2021/12/17 10:22:16;;;;;;;3.85;2.75;;;10.40;86.30;;;;;;5060202;28;20043;-78
2021/12/17 10:24:44;;;;;;;4.47;3.00;;;10.40;86.10;;;;;;5061641;28;20170;-77
2021/12/17 10:27:21;;;;;;;2.97;2.38;;;10.40;86.00;;;;;;5059484;28;20024;-77
2021/12/17 10:29:47;;;;;;;3.20;2.30;;;10.30;85.80;;;;;;5064683;28;20024;-77
2021/12/17 10:32:22;;;;;;;2.70;1.88;;;10.30;85.80;;;;;;5061428;28;20021;-77
2021/12/17 10:35:00;;;;;;;3.25;1.80;;;10.30;86.00;;;;;;5062827;28;20028;-78
2021/12/17 10:37:56;;;;;;;2.60;1.75;;;10.30;86.10;;;;;;5062738;28;20024;-77
2021/12/17 10:40:27;;;;;;;3.55;2.30;;;10.20;86.00;;;;;;5061891;28;20047;-77
2021/12/17 10:43:08;;;;;;;2.33;1.70;;;10.10;86.00;;;;;;5058788;28;20024;-77
2021/12/17 10:45:57;;;;;;;2.28;1.70;;;10.10;86.40;;;;;;5065769;28;20020;-77
2021/12/17 10:48:29;;;;;;;1.77;1.40;;;10.20;86.40;;;;;;5068136;28;20086;-78
2021/12/17 10:51:01;;;;;;;;;;;10.30;86.90;;;;;;5059862;28;20522;-77
2021/12/17 10:53:26;;;;;;;2.78;2.10;;;10.30;86.10;;;;;;5064841;28;19912;-77
2021/12/17 10:55:54;;;;;;;3.85;2.05;;;10.10;86.10;;;;;;5065310;28;20713;-77
2021/12/17 10:58:20;;;;;;;3.47;2.00;;;10.00;86.20;;;;;;5060843;28;20024;-77
2021/12/17 11:01:02;;;;;;;2.40;1.73;;;10.00;86.40;;;;;;5066142;28;20074;-77
2021/12/17 11:03:28;;;;;;;2.35;1.50;;;10.10;86.60;;;;;;5061200;28;20043;-77
2021/12/17 11:05:54;;;;;;;2.13;1.60;;;10.10;86.50;;;;;;5062233;28;20020;-77
2021/12/17 11:08:31;;;;;;;2.22;1.80;;;10.10;86.40;;;;;;5067807;28;20102;-77
2021/12/17 11:11:12;;;;;;;2.97;1.75;;;10.10;86.40;;;;;;5054762;28;20048;-77
2021/12/17 11:14:00;;;;;;;2.50;1.90;;;10.10;86.50;;;;;;5061865;28;20025;-77
2021/12/17 11:16:27;;;;;;;1.83;1.40;;;10.10;86.60;;;;;;5060122;28;20023;-76
2021/12/17 11:18:53;;;;;;;2.80;1.85;;;10.20;86.60;;;;;;5055785;28;20052;-76
2021/12/17 11:21:19;;;;;;;3.45;2.10;;;10.20;86.50;;;;;;5067224;28;20074;-77
2021/12/17 11:23:47;;;;;;;3.00;2.00;;;10.20;86.30;;;;;;5063203;28;20483;-77
2021/12/17 11:26:13;;;;;;;2.53;1.73;;;10.10;86.40;;;;;;5056111;28;20095;-77
2021/12/17 11:28:39;;;;;;;2.25;1.67;;;10.20;86.60;;;;;;5054340;28;20081;-77
2021/12/17 11:31:04;;;;;;;2.47;1.80;;;10.20;86.40;;;;;;5061899;28;20438;-78
2021/12/17 11:33:31;;;;;;;3.20;2.15;;;10.20;86.40;;;;;;5071198;28;20021;-77
2021/12/17 11:35:57;;;;;;;3.00;1.92;;;10.10;86.10;;;;;;5070899;28;20028;-76
2021/12/17 11:38:40;;;;;;;3.53;2.17;;;10.10;86.30;;;;;;5070296;28;20016;-77
2021/12/17 11:41:18;;;;;;;4.72;2.17;;;10.10;86.50;;;;;;5059231;28;20145;-78
2021/12/17 11:44:00;;;;;;;2.63;1.90;;;10.10;86.60;;;;;;5053178;28;20029;-76
2021/12/17 11:46:31;;;;;;;2.75;1.90;;;10.10;86.50;;;;;;5059256;28;20028;-77
2021/12/17 11:49:11;;;;;;;2.97;2.13;;;10.10;86.50;;;;;;5063214;28;20025;-76
2021/12/17 11:51:37;;;;;;;3.35;2.00;;;10.10;86.50;;;;;;5063972;28;20133;-77
2021/12/17 11:54:15;;;;;;;2.83;1.70;;;10.10;86.60;;;;;;5062677;28;20032;-77
2021/12/17 11:56:48;;;;;;;2.45;1.70;;;10.20;86.60;;;;;;5061837;28;20111;-76
2021/12/17 11:59:27;;;;;;;1.80;1.50;;;10.20;86.50;;;;;;5063285;28;20028;-76
2021/12/17 12:02:16;;;;;;;1.42;1.20;;;10.10;86.30;;;;;;5059976;28;20047;-76
2021/12/17 12:04:51;;;;;;;1.30;1.20;;;10.10;86.20;;;;;;5061210;28;20649;-76
2021/12/17 12:07:37;;;;;;;1.40;1.27;;;10.10;86.10;;;;;;5067017;28;20060;-76
2021/12/17 12:10:12;;;;;;;1.10;1.00;;;10.10;86.20;;;;;;5059192;28;20028;-75
2021/12/17 12:12:38;;;;;;;1.40;1.30;;;10.10;86.20;;;;;;5062752;28;20078;-76
2021/12/17 12:15:27;;;;;;;1.40;1.20;;;10.10;86.00;;;;;;5067792;28;20411;-76
2021/12/17 12:18:07;;;;;;;1.08;1.00;;;10.10;86.00;;;;;;5058859;28;20115;-76
2021/12/17 12:20:45;;;;;;;1.67;1.20;;;10.10;86.00;;;;;;5062509;28;20067;-76
2021/12/17 12:23:29;;;;;;;1.20;1.08;;;10.20;85.90;;;;;;5059864;28;20062;-75
2021/12/17 12:26:04;;;;;;;1.08;0.98;;;10.20;85.80;;;;;;5063834;28;20083;-75
2021/12/17 12:28:47;;;;;;;2.35;1.35;;;10.30;85.70;;;;;;5060581;28;20035;-75
2021/12/17 12:31:14;;;;;;;1.65;1.20;;;10.20;85.10;;;;;;5057000;28;20064;-76
2021/12/17 12:33:58;;;;;;;1.30;1.20;;;10.30;85.30;;;;;;5071664;28;20464;-75
2021/12/17 12:36:51;;;;;;;1.38;1.15;;;10.40;85.30;;;;;;5062122;28;20499;-77
2021/12/17 12:39:26;;;;;;;1.70;1.60;;;10.40;85.10;;;;;;5069367;28;20043;-75
2021/12/17 12:41:55;;;;;;;1.55;1.35;;;10.40;84.70;;;;;;5063675;28;20027;-75
2021/12/17 12:44:41;;;;;;;1.23;1.13;;;10.40;84.70;;;;;;5065323;28;20434;-75
2021/12/17 12:47:27;;;;;;;2.22;1.40;;;10.50;84.70;;;;;;5069475;28;20033;-75
2021/12/17 12:50:17;;;;;;;1.42;1.20;;;10.50;84.50;;;;;;5070926;28;20044;-75
2021/12/17 12:52:55;;;;;;;1.42;1.20;;;10.50;84.50;;;;;;5069007;28;20101;-76
2021/12/17 12:55:36;;;;;;;1.00;1.00;;;10.60;84.60;;;;;;5069109;28;20025;-76
2021/12/17 12:58:17;;;;;;;1.42;1.33;;;10.60;84.40;;;;;;5069395;28;20028;-75
2021/12/17 13:00:54;;;;;;;2.45;1.45;;;10.60;84.30;;;;;;5067308;28;20016;-77
2021/12/17 13:03:31;;;;;;;1.50;1.40;;;10.60;84.00;;;;;;5066015;28;20101;-76
2021/12/17 13:06:01;;;;;;;1.98;1.50;;;10.60;84.00;;;;;;5066023;28;20082;-75
2021/12/17 13:08:30;;;;;;;1.52;1.30;;;10.60;83.90;;;;;;5068784;28;20032;-75
2021/12/17 13:10:59;;;;;;;2.03;1.17;;;10.70;84.10;;;;;;5066220;28;20562;-77
2021/12/17 13:13:37;;;;;;;1.30;1.20;;;10.70;84.00;;;;;;5066028;28;20750;-76
2021/12/17 13:16:21;;;;;;;1.30;1.20;;;10.80;84.00;;;;;;5070994;28;20024;-79
2021/12/17 13:24:25;;;;;;;2.85;1.45;;;10.80;83.80;;;;;;5059070;28;20049;-76
2021/12/17 13:26:55;;;;;;;1.30;1.10;;;10.80;83.70;;;;;;5066230;28;20074;-76
2021/12/17 13:29:33;;;;;;;2.25;1.42;;;10.80;83.70;;;;;;5068994;28;20033;-76
2021/12/17 13:32:05;;;;;;;2.78;1.50;;;10.80;83.60;;;;;;5065889;28;20043;-75
2021/12/17 13:34:35;;;;;;;;;;;10.80;83.80;;;;;;5064977;28;20020;-76
2021/12/17 13:37:16;;;;;;;1.38;1.27;;;10.80;83.70;;;;;;5083714;28;19908;-77
2021/12/17 13:39:51;;;;;;;1.35;1.20;;;10.80;83.80;;;;;;5067259;28;20052;-75
2021/12/17 13:42:19;;;;;;;1.67;1.40;;;10.80;83.90;;;;;;5068025;28;20062;-75
2021/12/17 13:45:00;;;;;;;1.35;1.25;;;10.80;83.70;;;;;;5059091;28;20035;-76
2021/12/17 13:47:37;;;;;;;1.80;1.52;;;10.80;83.70;;;;;;5057906;28;20444;-78
2021/12/17 13:50:26;;;;;;;2.33;1.60;;;10.90;83.70;;;;;;5063837;28;20025;-76
2021/12/17 13:53:01;;;;;;;2.88;1.65;;;10.90;83.70;;;;;;5062645;28;20025;-77
2021/12/17 13:55:35;;;;;;;2.20;1.60;;;10.90;83.70;;;;;;5066565;28;20059;-78
2021/12/17 13:58:06;;;;;;;1.73;1.50;;;10.90;83.60;;;;;;5064979;28;20033;-78
2021/12/17 14:00:39;;;;;;;2.58;1.90;;;10.90;83.50;;;;;;5060599;28;20443;-77
2021/12/17 14:03:05;;;;;;;2.17;1.70;;;10.80;83.40;;;;;;5066053;28;20458;-77
2021/12/17 14:05:40;;;;;;;2.70;1.83;;;10.80;83.50;;;;;;5051342;28;20020;-77
2021/12/17 14:08:11;;;;;;;2.50;2.00;;;10.80;83.50;;;;;;5050512;28;20226;-78
2021/12/17 14:10:39;;;;;;;3.28;1.90;;;10.80;83.50;;;;;;5065375;28;20602;-79
2021/12/17 14:13:14;;;;;;;2.53;2.08;;;10.80;83.50;;;;;;5062102;28;20025;-79
2021/12/17 14:15:41;;;;;;;3.05;2.03;;;10.80;83.50;;;;;;5064054;28;20095;-78
2021/12/17 14:18:09;;;;;;;2.17;1.98;;;10.80;83.60;;;;;;5059774;28;20036;-80
2021/12/17 14:20:42;;;;;;;3.33;2.30;;;10.80;83.60;;;;;;5066635;28;20029;-79
2021/12/17 14:23:11;;;;;;;2.25;2.00;;;10.80;83.40;;;;;;5061307;28;20012;-80
2021/12/17 14:25:44;;;;;;;2.53;2.00;;;10.80;83.40;;;;;;5068661;28;20465;-79
2021/12/17 14:28:25;;;;;;;2.28;1.85;;;10.80;83.40;;;;;;5062377;28;20080;-79
2021/12/17 14:31:10;;;;;;;3.00;2.10;;;10.80;83.40;;;;;;5067825;28;20089;-78
2021/12/17 14:33:41;;;;;;;3.75;2.40;;;10.80;83.30;;;;;;5059218;28;20049;-78
2021/12/17 14:36:26;;;;;;;4.47;2.45;;;10.70;83.70;;;;;;5058589;28;20128;-80
2021/12/17 14:39:00;;;;;;;2.72;2.28;;;10.70;83.20;;;;;;5061587;28;20032;-80
2021/12/17 14:41:34;;;;;;;2.00;1.77;;;10.70;83.30;;;;;;5061537;28;20043;-79
2021/12/17 14:44:23;;;;;;;2.55;1.73;;;10.70;83.30;;;;;;5063643;28;20561;-79
2021/12/17 14:57:24;;;;;;;2.80;2.22;;;10.70;83.30;;;;;;5063182;28;20552;-81
2021/12/17 15:04:42;;;;;;;2.15;1.90;;;10.80;83.50;;;;;;5065655;28;20074;-80
2021/12/17 15:07:08;;;;;;;3.58;2.13;;;10.80;83.50;;;;;;5059950;28;20024;-81
2021/12/17 15:09:39;;;;;;;3.00;2.38;;;10.80;83.20;;;;;;5065664;28;20055;-80
2021/12/17 15:12:23;;;;;;;3.75;2.78;;;10.80;83.30;;;;;;5066940;28;20081;-80
2021/12/17 15:14:49;;;;;;;3.15;2.28;;;10.80;83.20;;;;;;5064217;28;20017;-81
2021/12/17 15:17:14;;;;;;;2.72;2.45;;;10.80;83.20;;;;;;5066398;28;20047;-79
2021/12/17 15:19:40;;;;;;;3.00;2.30;;;10.80;83.20;;;;;;5072505;28;20020;-79
2021/12/17 15:22:06;;;;;;;3.95;2.35;;;10.80;83.30;;;;;;5058546;28;20023;-79
2021/12/17 15:24:32;;;;;;;3.50;2.70;;;10.70;83.20;;;;;;5061730;28;20040;-78
2021/12/17 15:26:58;;;;;;;3.88;3.10;;;10.70;83.10;;;;;;5058430;28;20021;-80
2021/12/17 15:29:25;;;;;;;3.38;2.70;;;10.60;83.10;;;;;;5061069;28;20043;-80
2021/12/17 15:31:53;;;;;;;2.70;2.35;;;10.60;83.30;;;;;;5072646;28;20036;-80
2021/12/17 15:34:19;;;;;;;2.90;2.50;;;10.60;83.40;;;;;;5068632;28;20020;-79
2021/12/17 15:36:45;;;;;;;3.60;2.75;;;10.70;83.50;;;;;;5065091;28;20107;-80
2021/12/17 15:39:12;;;;;;;3.60;2.90;;;10.60;83.40;;;;;;5068186;28;20036;-80
2021/12/17 15:41:41;;;;;;;3.20;2.40;;;10.60;83.40;;;;;;5063916;28;20033;-80
2021/12/17 15:44:11;;;;;;;3.03;2.60;;;10.60;83.30;;;;;;5059772;28;20433;-81
2021/12/17 15:46:38;;;;;;;3.38;2.80;;;10.60;83.30;;;;;;5072090;28;20856;-81
2021/12/17 15:49:05;;;;;;;4.57;3.20;;;10.50;83.20;;;;;;5062832;28;20020;-80
2021/12/17 15:51:31;;;;;;;5.47;4.40;;;10.50;83.40;;;;;;5062935;28;20044;-80
2021/12/17 15:53:57;;;;;;;4.43;3.67;;;10.40;82.90;;;;;;5065371;28;20024;-78
2021/12/17 15:56:23;;;;;;;3.22;2.92;;;10.40;83.20;;;;;;5061745;28;20036;-79
2021/12/17 15:58:48;;;;;;;3.75;2.78;;;10.40;83.40;;;;;;5062916;28;20086;-79
2021/12/17 16:01:15;;;;;;;4.05;2.63;;;10.40;83.60;;;;;;5063172;28;20050;-78
2021/12/17 16:03:42;;;;;;;3.67;2.30;;;10.50;83.60;;;;;;5057888;28;20127;-79
2021/12/17 16:06:09;;;;;;;3.63;2.75;;;10.50;83.50;;;;;;5076808;28;20035;-79
2021/12/17 16:08:44;;;;;;;3.00;2.35;;;10.50;83.40;;;;;;5060511;28;20059;-79
2021/12/17 16:11:30;;;;;;;3.67;2.88;;;10.50;83.40;;;;;;5063074;28;20029;-79
2021/12/17 16:16:53;;;;;;;3.40;2.50;;;10.50;83.50;;;;;;5061862;28;20047;-82